Time;durP1;ratioP1;P1;durP2;ratioP2;P2;SDS_P1;SDS_P2;PMS_P1;PMS_P2;Temp;Humidity;BMP_temperature;BMP_pressure;BME280_temperature;BME280_humidity;BME280_pressure;Samples;Min_cycle;Max_cycle;Signal;HPM_P1;HPM_P2
2020/07/31 00:00:41;;;;;;;7.849999;6.95;;;;;;;17.81;79.11426;95413.44;;;;
2020/07/31 00:01:48;;;;;;;8.349998;7.250001;;;;;;;17.67;79.87012;95408.26;;;;
2020/07/31 00:02:49;;;;;;;8.349998;7.250001;;;;;;;17.67;79.87012;95408.26;;;;
2020/07/31 00:03:50;;;;;;;8.349998;7.250001;;;;;;;17.67;79.87012;95408.26;;;;
2020/07/31 00:04:57;;;;;;;8.349998;7.250001;;;;;;;17.67;79.87012;95408.26;;;;
2020/07/31 00:06:05;;;;;;;8.349998;7.250001;;;;;;;17.67;79.87012;95408.26;;;;
2020/07/31 00:07:12;;;;;;;8.349998;7.250001;;;;;;;17.67;79.87012;95408.26;;;;
2020/07/31 00:08:15;;;;;;;8.349998;7.250001;;;;;;;17.67;79.87012;95408.26;;;;
2020/07/31 00:09:23;;;;;;;8.349998;7.250001;;;;;;;17.67;79.87012;95408.26;;;;
2020/07/31 00:10:28;;;;;;;8.349998;7.250001;;;;;;;17.67;79.87012;95408.26;;;;
2020/07/31 00:11:34;;;;;;;8.349998;7.250001;;;;;;;17.67;79.87012;95408.26;;;;
2020/07/31 00:12:37;;;;;;;8.549999;7.75;;;;;;;17.59;80.58203;95413.35;;;;
2020/07/31 00:13:43;;;;;;;8.549999;7.75;;;;;;;17.59;80.58203;95413.35;;;;
2020/07/31 00:14:50;;;;;;;8.549999;7.75;;;;;;;17.59;80.58203;95413.35;;;;
2020/07/31 00:15:53;;;;;;;8.549999;7.75;;;;;;;17.59;80.58203;95413.35;;;;
2020/07/31 00:16:58;;;;;;;8.549999;7.75;;;;;;;17.59;80.58203;95413.35;;;;
2020/07/31 00:18:02;;;;;;;8.549999;7.75;;;;;;;17.59;80.58203;95413.35;;;;
2020/07/31 00:19:06;;;;;;;8.549999;7.75;;;;;;;17.59;80.58203;95413.35;;;;
2020/07/31 00:20:15;;;;;;;8.549999;7.75;;;;;;;17.59;80.58203;95413.35;;;;
2020/07/31 00:21:40;;;;;;;8.549999;7.75;;;;;;;17.59;80.58203;95413.35;;;;
2020/07/31 00:22:44;;;;;;;8.2;7.4;;;;;;;17.44;81.29492;95397.78;;;;
2020/07/31 00:23:47;;;;;;;8.2;7.4;;;;;;;17.44;81.29492;95397.78;;;;
2020/07/31 00:24:49;;;;;;;8.2;7.4;;;;;;;17.44;81.29492;95397.78;;;;
2020/07/31 00:25:55;;;;;;;8.2;7.4;;;;;;;17.44;81.29492;95397.78;;;;
2020/07/31 00:27:00;;;;;;;8.2;7.4;;;;;;;17.44;81.29492;95397.78;;;;
2020/07/31 00:28:06;;;;;;;8.2;7.4;;;;;;;17.44;81.29492;95397.78;;;;
2020/07/31 00:29:12;;;;;;;8.2;7.4;;;;;;;17.44;81.29492;95397.78;;;;
2020/07/31 00:30:22;;;;;;;8.2;7.4;;;;;;;17.44;81.29492;95397.78;;;;
2020/07/31 00:31:29;;;;;;;8.2;7.4;;;;;;;17.44;81.29492;95397.78;;;;
2020/07/31 00:32:33;;;;;;;8.2;7.4;;;;;;;17.44;81.29492;95397.78;;;;
2020/07/31 00:33:39;;;;;;;12.7;7.4;;;;;;;17.37;81.87695;95395.88;;;;
2020/07/31 00:34:45;;;;;;;12.7;7.4;;;;;;;17.37;81.87695;95395.88;;;;
2020/07/31 00:35:52;;;;;;;12.7;7.4;;;;;;;17.37;81.87695;95395.88;;;;
2020/07/31 00:36:58;;;;;;;12.7;7.4;;;;;;;17.37;81.87695;95395.88;;;;
2020/07/31 00:38:00;;;;;;;12.7;7.4;;;;;;;17.37;81.87695;95395.88;;;;
2020/07/31 00:39:07;;;;;;;12.7;7.4;;;;;;;17.37;81.87695;95395.88;;;;
2020/07/31 00:40:13;;;;;;;12.7;7.4;;;;;;;17.37;81.87695;95395.88;;;;
2020/07/31 00:41:18;;;;;;;12.7;7.4;;;;;;;17.37;81.87695;95395.88;;;;
2020/07/31 00:42:24;;;;;;;12.7;7.4;;;;;;;17.37;81.87695;95395.88;;;;
2020/07/31 00:43:38;;;;;;;8.249999;6.849999;;;;;;;17.27;82.46484;95389.21;;;;
2020/07/31 00:44:44;;;;;;;8.249999;6.849999;;;;;;;17.27;82.46484;95389.21;;;;
2020/07/31 00:45:51;;;;;;;8.249999;6.849999;;;;;;;17.27;82.46484;95389.21;;;;
2020/07/31 00:46:57;;;;;;;8.249999;6.849999;;;;;;;17.27;82.46484;95389.21;;;;
2020/07/31 00:48:03;;;;;;;8.249999;6.849999;;;;;;;17.27;82.46484;95389.21;;;;
2020/07/31 00:49:09;;;;;;;8.249999;6.849999;;;;;;;17.27;82.46484;95389.21;;;;
2020/07/31 00:50:16;;;;;;;8.249999;6.849999;;;;;;;17.27;82.46484;95389.21;;;;
2020/07/31 00:51:26;;;;;;;8.249999;6.849999;;;;;;;17.27;82.46484;95389.21;;;;
2020/07/31 00:52:32;;;;;;;8.249999;6.849999;;;;;;;17.27;82.46484;95389.21;;;;
2020/07/31 00:53:37;;;;;;;8.249999;6.849999;;;;;;;17.27;82.46484;95389.21;;;;
2020/07/31 00:54:41;;;;;;;8.249998;7.450001;;;;;;;17.2;82.91895;95372.14;;;;
2020/07/31 00:55:46;;;;;;;8.249998;7.450001;;;;;;;17.2;82.91895;95372.14;;;;
2020/07/31 00:56:50;;;;;;;8.249998;7.450001;;;;;;;17.2;82.91895;95372.14;;;;
2020/07/31 00:57:55;;;;;;;8.249998;7.450001;;;;;;;17.2;82.91895;95372.14;;;;
2020/07/31 00:59:00;;;;;;;8.249998;7.450001;;;;;;;17.2;82.91895;95372.14;;;;
2020/07/31 01:00:07;;;;;;;8.249998;7.450001;;;;;;;17.2;82.91895;95372.14;;;;
2020/07/31 01:01:14;;;;;;;8.249998;7.450001;;;;;;;17.2;82.91895;95372.14;;;;
2020/07/31 01:02:36;;;;;;;8.249998;7.450001;;;;;;;17.2;82.91895;95372.14;;;;
2020/07/31 01:03:50;;;;;;;8.249998;7.450001;;;;;;;17.2;82.91895;95372.14;;;;
2020/07/31 01:05:01;;;;;;;7.8;7.05;;;;;;;17.08;83.50293;95384.84;;;;
2020/07/31 01:06:14;;;;;;;7.8;7.05;;;;;;;17.08;83.50293;95384.84;;;;
2020/07/31 01:07:23;;;;;;;7.8;7.05;;;;;;;17.08;83.50293;95384.84;;;;
2020/07/31 01:08:31;;;;;;;7.8;7.05;;;;;;;17.08;83.50293;95384.84;;;;
2020/07/31 01:09:39;;;;;;;7.8;7.05;;;;;;;17.08;83.50293;95384.84;;;;
2020/07/31 01:10:46;;;;;;;7.8;7.05;;;;;;;17.08;83.50293;95384.84;;;;
2020/07/31 01:11:53;;;;;;;7.8;7.05;;;;;;;17.08;83.50293;95384.84;;;;
2020/07/31 01:13:05;;;;;;;7.8;7.05;;;;;;;17.08;83.50293;95384.84;;;;
2020/07/31 01:14:15;;;;;;;7.8;7.05;;;;;;;17.08;83.50293;95384.84;;;;
2020/07/31 01:15:38;;;;;;;8;7.299999;;;;;;;17.03;84.03516;95389.36;;;;
2020/07/31 01:16:46;;;;;;;8;7.299999;;;;;;;17.03;84.03516;95389.36;;;;
2020/07/31 01:17:54;;;;;;;8;7.299999;;;;;;;17.03;84.03516;95389.36;;;;
2020/07/31 01:18:54;;;;;;;8;7.299999;;;;;;;17.03;84.03516;95389.36;;;;
2020/07/31 01:19:59;;;;;;;8;7.299999;;;;;;;17.03;84.03516;95389.36;;;;
2020/07/31 01:21:05;;;;;;;8;7.299999;;;;;;;17.03;84.03516;95389.36;;;;
2020/07/31 01:22:15;;;;;;;8;7.299999;;;;;;;17.03;84.03516;95389.36;;;;
2020/07/31 01:23:21;;;;;;;8;7.299999;;;;;;;17.03;84.03516;95389.36;;;;
2020/07/31 01:24:22;;;;;;;8;7.299999;;;;;;;17.03;84.03516;95389.36;;;;
2020/07/31 01:25:26;;;;;;;8;7.299999;;;;;;;17.03;84.03516;95389.36;;;;
2020/07/31 01:26:32;;;;;;;8.949999;7.199999;;;;;;;16.9;84.49902;95383.08;;;;
2020/07/31 01:27:38;;;;;;;8.949999;7.199999;;;;;;;16.9;84.49902;95383.08;;;;
2020/07/31 01:28:43;;;;;;;8.949999;7.199999;;;;;;;16.9;84.49902;95383.08;;;;
2020/07/31 01:29:44;;;;;;;8.949999;7.199999;;;;;;;16.9;84.49902;95383.08;;;;
2020/07/31 01:30:49;;;;;;;8.949999;7.199999;;;;;;;16.9;84.49902;95383.08;;;;
2020/07/31 01:31:56;;;;;;;8.949999;7.199999;;;;;;;16.9;84.49902;95383.08;;;;
2020/07/31 01:33:06;;;;;;;8.949999;7.199999;;;;;;;16.9;84.49902;95383.08;;;;
2020/07/31 01:34:24;;;;;;;8.949999;7.199999;;;;;;;16.9;84.49902;95383.08;;;;
2020/07/31 01:35:30;;;;;;;8.949999;7.199999;;;;;;;16.9;84.49902;95383.08;;;;
2020/07/31 01:36:36;;;;;;;9.799998;7.95;;;;;;;16.76;85.13184;95384.72;;;;
2020/07/31 01:37:41;;;;;;;9.799998;7.95;;;;;;;16.76;85.13184;95384.72;;;;
2020/07/31 01:38:46;;;;;;;9.799998;7.95;;;;;;;16.76;85.13184;95384.72;;;;
2020/07/31 01:39:55;;;;;;;9.799998;7.95;;;;;;;16.76;85.13184;95384.72;;;;
2020/07/31 01:41:01;;;;;;;9.799998;7.95;;;;;;;16.76;85.13184;95384.72;;;;
2020/07/31 01:42:07;;;;;;;9.799998;7.95;;;;;;;16.76;85.13184;95384.72;;;;
2020/07/31 01:43:14;;;;;;;9.799998;7.95;;;;;;;16.76;85.13184;95384.72;;;;
2020/07/31 01:44:22;;;;;;;9.799998;7.95;;;;;;;16.76;85.13184;95384.72;;;;
2020/07/31 01:45:27;;;;;;;9.799998;7.95;;;;;;;16.76;85.13184;95384.72;;;;
2020/07/31 01:46:34;;;;;;;9.799998;7.95;;;;;;;16.76;85.13184;95384.72;;;;
2020/07/31 01:47:45;;;;;;;8.5;7.75;;;;;;;16.73;85.54688;95380.2;;;;
2020/07/31 01:48:55;;;;;;;8.5;7.75;;;;;;;16.73;85.54688;95380.2;;;;
2020/07/31 01:50:05;;;;;;;8.5;7.75;;;;;;;16.73;85.54688;95380.2;;;;
2020/07/31 01:51:12;;;;;;;8.5;7.75;;;;;;;16.73;85.54688;95380.2;;;;
2020/07/31 01:52:23;;;;;;;8.5;7.75;;;;;;;16.73;85.54688;95380.2;;;;
2020/07/31 01:53:30;;;;;;;8.5;7.75;;;;;;;16.73;85.54688;95380.2;;;;
2020/07/31 01:54:35;;;;;;;8.5;7.75;;;;;;;16.73;85.54688;95380.2;;;;
2020/07/31 01:55:47;;;;;;;8.5;7.75;;;;;;;16.73;85.54688;95380.2;;;;
2020/07/31 01:56:53;;;;;;;8.5;7.75;;;;;;;16.73;85.54688;95380.2;;;;
2020/07/31 01:57:54;;;;;;;9.5;8.6;;;;;;;16.63;86.13477;95372.56;;;;
2020/07/31 01:58:59;;;;;;;9.5;8.6;;;;;;;16.63;86.13477;95372.56;;;;
2020/07/31 02:00:05;;;;;;;9.5;8.6;;;;;;;16.63;86.13477;95372.56;;;;
2020/07/31 02:01:12;;;;;;;9.5;8.6;;;;;;;16.63;86.13477;95372.56;;;;
2020/07/31 02:02:20;;;;;;;9.5;8.6;;;;;;;16.63;86.13477;95372.56;;;;
2020/07/31 02:03:21;;;;;;;9.5;8.6;;;;;;;16.63;86.13477;95372.56;;;;
2020/07/31 02:04:28;;;;;;;9.5;8.6;;;;;;;16.63;86.13477;95372.56;;;;
2020/07/31 02:05:33;;;;;;;9.5;8.6;;;;;;;16.63;86.13477;95372.56;;;;
2020/07/31 02:06:37;;;;;;;9.5;8.6;;;;;;;16.63;86.13477;95372.56;;;;
2020/07/31 02:07:43;;;;;;;9.5;8.6;;;;;;;16.63;86.13477;95372.56;;;;
2020/07/31 02:08:45;;;;;;;9.25;8.349998;;;;;;;16.58;86.6748;95364.79;;;;
2020/07/31 02:09:48;;;;;;;9.25;8.349998;;;;;;;16.58;86.6748;95364.79;;;;
2020/07/31 02:10:55;;;;;;;9.25;8.349998;;;;;;;16.58;86.6748;95364.79;;;;
2020/07/31 02:12:00;;;;;;;9.25;8.349998;;;;;;;16.58;86.6748;95364.79;;;;
2020/07/31 02:13:11;;;;;;;9.25;8.349998;;;;;;;16.58;86.6748;95364.79;;;;
2020/07/31 02:14:16;;;;;;;9.25;8.349998;;;;;;;16.58;86.6748;95364.79;;;;
2020/07/31 02:15:23;;;;;;;9.25;8.349998;;;;;;;16.58;86.6748;95364.79;;;;
2020/07/31 02:16:33;;;;;;;9.25;8.349998;;;;;;;16.58;86.6748;95364.79;;;;
2020/07/31 02:17:37;;;;;;;9.25;8.349998;;;;;;;16.58;86.6748;95364.79;;;;
2020/07/31 02:18:37;;;;;;;9.25;8.349998;;;;;;;16.58;86.6748;95364.79;;;;
2020/07/31 02:19:42;;;;;;;9.349999;8.35;;;;;;;16.5;87.11328;95356.6;;;;
2020/07/31 02:20:43;;;;;;;9.349999;8.35;;;;;;;16.5;87.11328;95356.6;;;;
2020/07/31 02:21:47;;;;;;;9.349999;8.35;;;;;;;16.5;87.11328;95356.6;;;;
2020/07/31 02:22:51;;;;;;;9.349999;8.35;;;;;;;16.5;87.11328;95356.6;;;;
2020/07/31 02:23:51;;;;;;;9.349999;8.35;;;;;;;16.5;87.11328;95356.6;;;;
2020/07/31 02:24:56;;;;;;;9.349999;8.35;;;;;;;16.5;87.11328;95356.6;;;;
2020/07/31 02:26:01;;;;;;;9.349999;8.35;;;;;;;16.5;87.11328;95356.6;;;;
2020/07/31 02:27:02;;;;;;;9.349999;8.35;;;;;;;16.5;87.11328;95356.6;;;;
2020/07/31 02:28:10;;;;;;;9.349999;8.35;;;;;;;16.5;87.11328;95356.6;;;;
2020/07/31 02:29:35;;;;;;;9.1;8.200001;;;;;;;16.5;87.67383;95351.68;;;;
2020/07/31 02:30:41;;;;;;;9.1;8.200001;;;;;;;16.5;87.67383;95351.68;;;;
2020/07/31 02:31:43;;;;;;;9.1;8.200001;;;;;;;16.5;87.67383;95351.68;;;;
2020/07/31 02:32:48;;;;;;;9.1;8.200001;;;;;;;16.5;87.67383;95351.68;;;;
2020/07/31 02:33:50;;;;;;;9.1;8.200001;;;;;;;16.5;87.67383;95351.68;;;;
2020/07/31 02:34:53;;;;;;;9.1;8.200001;;;;;;;16.5;87.67383;95351.68;;;;
2020/07/31 02:35:58;;;;;;;9.1;8.200001;;;;;;;16.5;87.67383;95351.68;;;;
2020/07/31 02:36:59;;;;;;;9.1;8.200001;;;;;;;16.5;87.67383;95351.68;;;;
2020/07/31 02:38:05;;;;;;;9.1;8.200001;;;;;;;16.5;87.67383;95351.68;;;;
2020/07/31 02:39:12;;;;;;;9.1;8.200001;;;;;;;16.5;87.67383;95351.68;;;;
2020/07/31 02:40:14;;;;;;;9.9;9;;;;;;;16.45;88.17383;95340.22;;;;
2020/07/31 02:41:20;;;;;;;9.9;9;;;;;;;16.45;88.17383;95340.22;;;;
2020/07/31 02:42:25;;;;;;;9.9;9;;;;;;;16.45;88.17383;95340.22;;;;
2020/07/31 02:43:29;;;;;;;9.9;9;;;;;;;16.45;88.17383;95340.22;;;;
2020/07/31 02:44:36;;;;;;;9.9;9;;;;;;;16.45;88.17383;95340.22;;;;
2020/07/31 02:45:42;;;;;;;9.9;9;;;;;;;16.45;88.17383;95340.22;;;;
2020/07/31 02:46:45;;;;;;;9.9;9;;;;;;;16.45;88.17383;95340.22;;;;
2020/07/31 02:47:45;;;;;;;9.9;9;;;;;;;16.45;88.17383;95340.22;;;;
2020/07/31 02:48:51;;;;;;;9.9;9;;;;;;;16.45;88.17383;95340.22;;;;
2020/07/31 02:50:05;;;;;;;9.9;9;;;;;;;16.45;88.17383;95340.22;;;;
2020/07/31 02:51:12;;;;;;;11.4;10.25;;;;;;;16.54;88.77441;95336.84;;;;
2020/07/31 02:52:24;;;;;;;11.4;10.25;;;;;;;16.54;88.77441;95336.84;;;;
2020/07/31 02:53:30;;;;;;;11.4;10.25;;;;;;;16.54;88.77441;95336.84;;;;
2020/07/31 02:54:31;;;;;;;11.4;10.25;;;;;;;16.54;88.77441;95336.84;;;;
2020/07/31 02:55:34;;;;;;;11.4;10.25;;;;;;;16.54;88.77441;95336.84;;;;
2020/07/31 02:56:38;;;;;;;11.4;10.25;;;;;;;16.54;88.77441;95336.84;;;;
2020/07/31 02:57:41;;;;;;;11.4;10.25;;;;;;;16.54;88.77441;95336.84;;;;
2020/07/31 02:58:48;;;;;;;11.4;10.25;;;;;;;16.54;88.77441;95336.84;;;;
2020/07/31 02:59:51;;;;;;;11.4;10.25;;;;;;;16.54;88.77441;95336.84;;;;
2020/07/31 03:00:52;;;;;;;11.4;10.25;;;;;;;16.54;88.77441;95336.84;;;;
2020/07/31 03:01:58;;;;;;;11.7;10.65;;;;;;;16.58;89.4834;95335.76;;;;
2020/07/31 03:03:03;;;;;;;11.7;10.65;;;;;;;16.58;89.4834;95335.76;;;;
2020/07/31 03:04:11;;;;;;;11.7;10.65;;;;;;;16.58;89.4834;95335.76;;;;
2020/07/31 03:05:19;;;;;;;11.7;10.65;;;;;;;16.58;89.4834;95335.76;;;;
2020/07/31 03:06:22;;;;;;;11.7;10.65;;;;;;;16.58;89.4834;95335.76;;;;
2020/07/31 03:07:27;;;;;;;11.7;10.65;;;;;;;16.58;89.4834;95335.76;;;;
2020/07/31 03:08:35;;;;;;;11.7;10.65;;;;;;;16.58;89.4834;95335.76;;;;
2020/07/31 03:09:39;;;;;;;11.7;10.65;;;;;;;16.58;89.4834;95335.76;;;;
2020/07/31 03:10:44;;;;;;;11.7;10.65;;;;;;;16.58;89.4834;95335.76;;;;
2020/07/31 03:11:46;;;;;;;11.95;10.85;;;;;;;16.69;90.12402;95344.06;;;;
2020/07/31 03:12:51;;;;;;;11.95;10.85;;;;;;;16.69;90.12402;95344.06;;;;
2020/07/31 03:13:58;;;;;;;11.95;10.85;;;;;;;16.69;90.12402;95344.06;;;;
2020/07/31 03:15:03;;;;;;;11.95;10.85;;;;;;;16.69;90.12402;95344.06;;;;
2020/07/31 03:16:09;;;;;;;11.95;10.85;;;;;;;16.69;90.12402;95344.06;;;;
2020/07/31 03:17:14;;;;;;;11.95;10.85;;;;;;;16.69;90.12402;95344.06;;;;
2020/07/31 03:18:19;;;;;;;11.95;10.85;;;;;;;16.69;90.12402;95344.06;;;;
2020/07/31 03:19:30;;;;;;;11.95;10.85;;;;;;;16.69;90.12402;95344.06;;;;
2020/07/31 03:20:36;;;;;;;11.95;10.85;;;;;;;16.69;90.12402;95344.06;;;;
2020/07/31 03:21:36;;;;;;;11.95;10.85;;;;;;;16.69;90.12402;95344.06;;;;
2020/07/31 03:22:41;;;;;;;11;10;;;;;;;16.65;90.77344;95336.72;;;;
2020/07/31 03:23:50;;;;;;;11;10;;;;;;;16.65;90.77344;95336.72;;;;
2020/07/31 03:24:57;;;;;;;11;10;;;;;;;16.65;90.77344;95336.72;;;;
2020/07/31 03:25:58;;;;;;;11;10;;;;;;;16.65;90.77344;95336.72;;;;
2020/07/31 03:27:03;;;;;;;11;10;;;;;;;16.65;90.77344;95336.72;;;;
2020/07/31 03:28:09;;;;;;;11;10;;;;;;;16.65;90.77344;95336.72;;;;
2020/07/31 03:29:13;;;;;;;11;10;;;;;;;16.65;90.77344;95336.72;;;;
2020/07/31 03:30:18;;;;;;;11;10;;;;;;;16.65;90.77344;95336.72;;;;
2020/07/31 03:31:24;;;;;;;11;10;;;;;;;16.65;90.77344;95336.72;;;;
2020/07/31 03:32:31;;;;;;;11;10;;;;;;;16.65;90.77344;95336.72;;;;
2020/07/31 03:33:36;;;;;;;12.45;11.35;;;;;;;16.62;91.27539;95343.11;;;;
2020/07/31 03:34:49;;;;;;;12.45;11.35;;;;;;;16.62;91.27539;95343.11;;;;
2020/07/31 03:35:54;;;;;;;12.45;11.35;;;;;;;16.62;91.27539;95343.11;;;;
2020/07/31 03:36:59;;;;;;;12.45;11.35;;;;;;;16.62;91.27539;95343.11;;;;
2020/07/31 03:38:01;;;;;;;12.45;11.35;;;;;;;16.62;91.27539;95343.11;;;;
2020/07/31 03:39:11;;;;;;;12.45;11.35;;;;;;;16.62;91.27539;95343.11;;;;
2020/07/31 03:40:18;;;;;;;12.45;11.35;;;;;;;16.62;91.27539;95343.11;;;;
2020/07/31 03:41:26;;;;;;;12.45;11.35;;;;;;;16.62;91.27539;95343.11;;;;
2020/07/31 03:42:30;;;;;;;12.45;11.35;;;;;;;16.62;91.27539;95343.11;;;;
2020/07/31 03:43:48;;;;;;;13.05;11.75;;;;;;;16.53;91.86133;95346.51;;;;
2020/07/31 03:44:55;;;;;;;13.05;11.75;;;;;;;16.53;91.86133;95346.51;;;;
2020/07/31 03:45:58;;;;;;;13.05;11.75;;;;;;;16.53;91.86133;95346.51;;;;
2020/07/31 03:47:04;;;;;;;13.05;11.75;;;;;;;16.53;91.86133;95346.51;;;;
2020/07/31 03:48:05;;;;;;;13.05;11.75;;;;;;;16.53;91.86133;95346.51;;;;
2020/07/31 03:49:13;;;;;;;13.05;11.75;;;;;;;16.53;91.86133;95346.51;;;;
2020/07/31 03:50:23;;;;;;;13.05;11.75;;;;;;;16.53;91.86133;95346.51;;;;
2020/07/31 03:51:31;;;;;;;13.05;11.75;;;;;;;16.53;91.86133;95346.51;;;;
2020/07/31 03:52:41;;;;;;;13.05;11.75;;;;;;;16.53;91.86133;95346.51;;;;
2020/07/31 03:53:54;;;;;;;13.05;11.75;;;;;;;16.53;91.86133;95346.51;;;;
2020/07/31 03:54:56;;;;;;;13.55;12.15;;;;;;;16.5;92.58594;95338.06;;;;
2020/07/31 03:56:08;;;;;;;13.55;12.15;;;;;;;16.5;92.58594;95338.06;;;;
2020/07/31 03:57:16;;;;;;;13.55;12.15;;;;;;;16.5;92.58594;95338.06;;;;
2020/07/31 03:58:32;;;;;;;13.55;12.15;;;;;;;16.5;92.58594;95338.06;;;;
2020/07/31 03:59:42;;;;;;;13.55;12.15;;;;;;;16.5;92.58594;95338.06;;;;
2020/07/31 04:00:50;;;;;;;13.55;12.15;;;;;;;16.5;92.58594;95338.06;;;;
2020/07/31 04:02:00;;;;;;;13.55;12.15;;;;;;;16.5;92.58594;95338.06;;;;
2020/07/31 04:03:11;;;;;;;13.55;12.15;;;;;;;16.5;92.58594;95338.06;;;;
2020/07/31 04:04:18;;;;;;;13.55;12.15;;;;;;;16.5;92.58594;95338.06;;;;
2020/07/31 04:05:34;;;;;;;14.35;12.85;;;;;;;16.52;93.17383;95342.16;;;;
2020/07/31 04:06:43;;;;;;;14.35;12.85;;;;;;;16.52;93.17383;95342.16;;;;
2020/07/31 04:07:59;;;;;;;14.35;12.85;;;;;;;16.52;93.17383;95342.16;;;;
2020/07/31 04:09:05;;;;;;;14.35;12.85;;;;;;;16.52;93.17383;95342.16;;;;
2020/07/31 04:10:21;;;;;;;14.35;12.85;;;;;;;16.52;93.17383;95342.16;;;;
2020/07/31 04:11:34;;;;;;;14.35;12.85;;;;;;;16.52;93.17383;95342.16;;;;
2020/07/31 04:12:40;;;;;;;14.35;12.85;;;;;;;16.52;93.17383;95342.16;;;;
2020/07/31 04:13:50;;;;;;;14.35;12.85;;;;;;;16.52;93.17383;95342.16;;;;
2020/07/31 04:15:00;;;;;;;14.35;12.85;;;;;;;16.52;93.17383;95342.16;;;;
2020/07/31 04:16:07;;;;;;;13.85;12.55;;;;;;;16.64;93.58594;95353.77;;;;
2020/07/31 04:17:21;;;;;;;13.85;12.55;;;;;;;16.64;93.58594;95353.77;;;;
2020/07/31 04:18:30;;;;;;;13.85;12.55;;;;;;;16.64;93.58594;95353.77;;;;
2020/07/31 04:19:37;;;;;;;13.85;12.55;;;;;;;16.64;93.58594;95353.77;;;;
2020/07/31 04:20:55;;;;;;;13.85;12.55;;;;;;;16.64;93.58594;95353.77;;;;
2020/07/31 04:22:03;;;;;;;13.85;12.55;;;;;;;16.64;93.58594;95353.77;;;;
2020/07/31 04:23:14;;;;;;;13.85;12.55;;;;;;;16.64;93.58594;95353.77;;;;
2020/07/31 04:24:21;;;;;;;13.85;12.55;;;;;;;16.64;93.58594;95353.77;;;;
2020/07/31 04:25:32;;;;;;;13.85;12.55;;;;;;;16.64;93.58594;95353.77;;;;
2020/07/31 04:26:43;;;;;;;14.55;13;;;;;;;16.7;93.94531;95348.03;;;;
2020/07/31 04:27:55;;;;;;;14.55;13;;;;;;;16.7;93.94531;95348.03;;;;
2020/07/31 04:29:01;;;;;;;14.55;13;;;;;;;16.7;93.94531;95348.03;;;;
2020/07/31 04:30:14;;;;;;;14.55;13;;;;;;;16.7;93.94531;95348.03;;;;
2020/07/31 04:31:29;;;;;;;14.55;13;;;;;;;16.7;93.94531;95348.03;;;;
2020/07/31 04:32:39;;;;;;;14.55;13;;;;;;;16.7;93.94531;95348.03;;;;
2020/07/31 04:33:49;;;;;;;14.55;13;;;;;;;16.7;93.94531;95348.03;;;;
2020/07/31 04:34:54;;;;;;;14.55;13;;;;;;;16.7;93.94531;95348.03;;;;
2020/07/31 04:36:09;;;;;;;14.55;13;;;;;;;16.7;93.94531;95348.03;;;;
2020/07/31 04:37:23;;;;;;;14.75;13.4;;;;;;;16.88;94.2959;95357.15;;;;
2020/07/31 04:38:30;;;;;;;14.75;13.4;;;;;;;16.88;94.2959;95357.15;;;;
2020/07/31 04:39:38;;;;;;;14.75;13.4;;;;;;;16.88;94.2959;95357.15;;;;
2020/07/31 04:40:46;;;;;;;14.75;13.4;;;;;;;16.88;94.2959;95357.15;;;;
2020/07/31 04:41:55;;;;;;;14.75;13.4;;;;;;;16.88;94.2959;95357.15;;;;
2020/07/31 04:43:03;;;;;;;14.75;13.4;;;;;;;16.88;94.2959;95357.15;;;;
2020/07/31 04:44:10;;;;;;;14.75;13.4;;;;;;;16.88;94.2959;95357.15;;;;
2020/07/31 04:45:19;;;;;;;14.75;13.4;;;;;;;16.88;94.2959;95357.15;;;;
2020/07/31 04:46:27;;;;;;;14.75;13.4;;;;;;;16.88;94.2959;95357.15;;;;
2020/07/31 04:47:33;;;;;;;14.35;12.95;;;;;;;17.04;94.59961;95356.05;;;;
2020/07/31 04:48:50;;;;;;;14.35;12.95;;;;;;;17.04;94.59961;95356.05;;;;
2020/07/31 04:50:04;;;;;;;14.35;12.95;;;;;;;17.04;94.59961;95356.05;;;;
2020/07/31 04:51:15;;;;;;;14.35;12.95;;;;;;;17.04;94.59961;95356.05;;;;
2020/07/31 04:52:22;;;;;;;14.35;12.95;;;;;;;17.04;94.59961;95356.05;;;;
2020/07/31 04:53:41;;;;;;;14.35;12.95;;;;;;;17.04;94.59961;95356.05;;;;
2020/07/31 04:55:00;;;;;;;14.35;12.95;;;;;;;17.04;94.59961;95356.05;;;;
2020/07/31 04:56:08;;;;;;;14.35;12.95;;;;;;;17.04;94.59961;95356.05;;;;
2020/07/31 04:57:17;;;;;;;14.35;12.95;;;;;;;17.04;94.59961;95356.05;;;;
2020/07/31 04:58:24;;;;;;;14.45;13;;;;;;;17.3;94.85938;95359.04;;;;
2020/07/31 04:59:29;;;;;;;14.45;13;;;;;;;17.3;94.85938;95359.04;;;;
2020/07/31 05:00:35;;;;;;;14.45;13;;;;;;;17.3;94.85938;95359.04;;;;
2020/07/31 05:01:40;;;;;;;14.45;13;;;;;;;17.3;94.85938;95359.04;;;;
2020/07/31 05:02:46;;;;;;;14.45;13;;;;;;;17.3;94.85938;95359.04;;;;
2020/07/31 05:03:53;;;;;;;14.45;13;;;;;;;17.3;94.85938;95359.04;;;;
2020/07/31 05:04:58;;;;;;;14.45;13;;;;;;;17.3;94.85938;95359.04;;;;
2020/07/31 05:06:05;;;;;;;14.45;13;;;;;;;17.3;94.85938;95359.04;;;;
2020/07/31 05:07:11;;;;;;;14.45;13;;;;;;;17.3;94.85938;95359.04;;;;
2020/07/31 05:08:16;;;;;;;12.8;11.7;;;;;;;17.54;95.04102;95369.26;;;;
2020/07/31 05:09:24;;;;;;;12.8;11.7;;;;;;;17.54;95.04102;95369.26;;;;
2020/07/31 05:10:30;;;;;;;12.8;11.7;;;;;;;17.54;95.04102;95369.26;;;;
2020/07/31 05:11:43;;;;;;;12.8;11.7;;;;;;;17.54;95.04102;95369.26;;;;
2020/07/31 05:12:50;;;;;;;12.8;11.7;;;;;;;17.54;95.04102;95369.26;;;;
2020/07/31 05:14:16;;;;;;;12.8;11.7;;;;;;;17.54;95.04102;95369.26;;;;
2020/07/31 05:15:25;;;;;;;12.8;11.7;;;;;;;17.54;95.04102;95369.26;;;;
2020/07/31 05:16:51;;;;;;;12.8;11.7;;;;;;;17.54;95.04102;95369.26;;;;
2020/07/31 05:18:30;;;;;;;12.8;11.7;;;;;;;17.54;95.04102;95369.26;;;;
2020/07/31 05:19:55;;;;;;;12.55;11.35;;;;;;;17.87;95.05762;95362.18;;;;
2020/07/31 05:21:07;;;;;;;12.55;11.35;;;;;;;17.87;95.05762;95362.18;;;;
2020/07/31 05:22:47;;;;;;;12.55;11.35;;;;;;;17.87;95.05762;95362.18;;;;
2020/07/31 05:24:17;;;;;;;12.55;11.35;;;;;;;17.87;95.05762;95362.18;;;;
2020/07/31 05:25:36;;;;;;;12.55;11.35;;;;;;;17.87;95.05762;95362.18;;;;
2020/07/31 05:27:01;;;;;;;12.55;11.35;;;;;;;17.87;95.05762;95362.18;;;;
2020/07/31 05:28:23;;;;;;;12.55;11.35;;;;;;;17.87;95.05762;95362.18;;;;
2020/07/31 05:29:35;;;;;;;12.75;11.55;;;;;;;18.25;94.83496;95369.67;;;;
2020/07/31 05:31:03;;;;;;;12.75;11.55;;;;;;;18.25;94.83496;95369.67;;;;
2020/07/31 05:32:30;;;;;;;12.75;11.55;;;;;;;18.25;94.83496;95369.67;;;;
2020/07/31 05:33:35;;;;;;;12.75;11.55;;;;;;;18.25;94.83496;95369.67;;;;
2020/07/31 05:34:56;;;;;;;12.75;11.55;;;;;;;18.25;94.83496;95369.67;;;;
2020/07/31 05:36:21;;;;;;;12.75;11.55;;;;;;;18.25;94.83496;95369.67;;;;
2020/07/31 05:37:33;;;;;;;12.75;11.55;;;;;;;18.25;94.83496;95369.67;;;;
2020/07/31 05:38:50;;;;;;;12.75;11.55;;;;;;;18.25;94.83496;95369.67;;;;
2020/07/31 05:40:00;;;;;;;12.75;11.55;;;;;;;18.25;94.83496;95369.67;;;;
2020/07/31 05:41:21;;;;;;;11.65;10.55;;;;;;;18.88;94.3291;95372.97;;;;
2020/07/31 05:42:52;;;;;;;11.65;10.55;;;;;;;18.88;94.3291;95372.97;;;;
2020/07/31 05:44:03;;;;;;;11.65;10.55;;;;;;;18.88;94.3291;95372.97;;;;
2020/07/31 05:45:28;;;;;;;11.65;10.55;;;;;;;18.88;94.3291;95372.97;;;;
2020/07/31 05:46:53;;;;;;;11.65;10.55;;;;;;;18.88;94.3291;95372.97;;;;
2020/07/31 05:48:37;;;;;;;11.65;10.55;;;;;;;18.88;94.3291;95372.97;;;;
2020/07/31 05:50:01;;;;;;;11.65;10.55;;;;;;;18.88;94.3291;95372.97;;;;
2020/07/31 05:51:18;;;;;;;11.9;10.7;;;;;;;19.4;93.94141;95385.42;;;;
2020/07/31 05:52:48;;;;;;;11.9;10.7;;;;;;;19.4;93.94141;95385.42;;;;
2020/07/31 05:54:03;;;;;;;11.9;10.7;;;;;;;19.4;93.94141;95385.42;;;;
2020/07/31 05:55:15;;;;;;;11.9;10.7;;;;;;;19.4;93.94141;95385.42;;;;
2020/07/31 05:56:24;;;;;;;11.9;10.7;;;;;;;19.4;93.94141;95385.42;;;;
2020/07/31 05:57:36;;;;;;;11.9;10.7;;;;;;;19.4;93.94141;95385.42;;;;
2020/07/31 05:58:47;;;;;;;11.9;10.7;;;;;;;19.4;93.94141;95385.42;;;;
2020/07/31 05:59:56;;;;;;;11.9;10.7;;;;;;;19.4;93.94141;95385.42;;;;
2020/07/31 06:01:03;;;;;;;11.9;10.7;;;;;;;19.4;93.94141;95385.42;;;;
2020/07/31 06:02:22;;;;;;;11.85;10.65;;;;;;;20;93.51172;95389.45;;;;
2020/07/31 06:03:26;;;;;;;11.85;10.65;;;;;;;20;93.51172;95389.45;;;;
2020/07/31 06:04:36;;;;;;;11.85;10.65;;;;;;;20;93.51172;95389.45;;;;
2020/07/31 06:05:49;;;;;;;11.85;10.65;;;;;;;20;93.51172;95389.45;;;;
2020/07/31 06:06:55;;;;;;;11.85;10.65;;;;;;;20;93.51172;95389.45;;;;
2020/07/31 06:08:03;;;;;;;11.85;10.65;;;;;;;20;93.51172;95389.45;;;;
2020/07/31 06:09:04;;;;;;;11.85;10.65;;;;;;;20;93.51172;95389.45;;;;
2020/07/31 06:10:08;;;;;;;11.85;10.65;;;;;;;20;93.51172;95389.45;;;;
2020/07/31 06:11:18;;;;;;;11.85;10.65;;;;;;;20;93.51172;95389.45;;;;
2020/07/31 06:12:34;;;;;;;11.3;10.2;;;;;;;20.57;92.90234;95414.39;;;;
2020/07/31 06:13:47;;;;;;;11.3;10.2;;;;;;;20.57;92.90234;95414.39;;;;
2020/07/31 06:14:53;;;;;;;11.3;10.2;;;;;;;20.57;92.90234;95414.39;;;;
2020/07/31 06:16:00;;;;;;;11.3;10.2;;;;;;;20.57;92.90234;95414.39;;;;
2020/07/31 06:17:15;;;;;;;11.3;10.2;;;;;;;20.57;92.90234;95414.39;;;;
2020/07/31 06:18:28;;;;;;;11.3;10.2;;;;;;;20.57;92.90234;95414.39;;;;
2020/07/31 06:19:36;;;;;;;11.3;10.2;;;;;;;20.57;92.90234;95414.39;;;;
2020/07/31 06:20:43;;;;;;;11.3;10.2;;;;;;;20.57;92.90234;95414.39;;;;
2020/07/31 06:21:50;;;;;;;11.3;10.2;;;;;;;20.57;92.90234;95414.39;;;;